Data for 04/13/2014

Time Sea-Level Adjusted Pressure Absolute Pressure Temperature Relative Humidity Dew Point   
(mb) (inHg) (mb) (inHg) (C) (F) (%) (C) (F)
00:05 1019 30.09 848 25.04 -3.6 25.6 74 -7.6 18.3
00:10 1019 30.09 848 25.04 -3.6 25.5 75 -7.4 18.7
00:15 1019 30.09 848 25.04 -3.7 25.4 77 -7.2 19
00:20 1019 30.09 848 25.04 -3.8 25.2 80 -6.8 19.8
00:25 1019 30.09 848 25.04 -3.9 25 79 -7 19.5
00:30 1019 30.09 848 25.04 -4 24.7 81 -6.8 19.8
00:35 1019 30.09 848 25.04 -4.2 24.5 82 -6.9 19.6
00:40 1019 30.09 848 25.04 -4.2 24.4 82 -6.9 19.5
00:45 1019 30.09 848 25.04 -4.3 24.3 82 -6.9 19.5
00:50 1019 30.09 848 25.04 -4.3 24.3 82 -7 19.4
00:55 1019 30.09 848 25.04 -4.3 24.3 82 -6.8 19.7
01:00 1019 30.09 848 25.04 -4.5 24 83 -7 19.4
01:05 1019 30.09 848 25.04 -4.6 23.7 82 -7.2 19.1
01:10 1019 30.09 849 25.07 -4.7 23.5 82 -7.4 18.6
01:15 1019 30.09 849 25.07 -5 23.1 82 -7.5 18.4
01:20 1019 30.09 849 25.07 -5.1 22.9 82 -7.6 18.3
01:25 1019 30.09 848 25.04 -5.2 22.6 83 -7.6 18.3
01:30 1019 30.09 848 25.04 -5.3 22.5 83 -7.8 18
01:35 1019 30.09 848 25.04 -5.3 22.4 83 -7.8 18
01:40 1019 30.09 849 25.07 -5.3 22.4 82 -7.9 17.8
01:45 1019 30.09 849 25.07 -5.3 22.4 82 -8 17.7
01:50 1019 30.09 849 25.07 -5.4 22.3 81 -8.1 17.5
01:55 1019 30.09 848 25.04 -5.4 22.3 81 -8.1 17.4
02:00 1019 30.09 849 25.07 -5.4 22.3 80 -8.3 17.1
02:05 1019 30.09 849 25.07 -5.4 22.3 80 -8.3 17.1
02:10 1019 30.09 849 25.07 -5.4 22.4 80 -8.3 17
02:15 1019 30.09 849 25.07 -5.3 22.4 80 -8.3 17
02:20 1019 30.09 849 25.07 -5.3 22.5 79 -8.3 17
02:25 1019 30.09 849 25.07 -5.3 22.5 79 -8.3 17.1
02:30 1019 30.09 849 25.07 -5.3 22.5 79 -8.3 17.1
02:35 1019 30.09 849 25.07 -5.3 22.4 80 -8.3 17
02:40 1019 30.09 849 25.07 -5.3 22.5 78 -8.5 16.7
02:45 1019 30.09 849 25.07 -5.2 22.6 80 -8.2 17.3
02:50 1019 30.09 849 25.07 -5.3 22.5 79 -8.3 17
02:55 1020 30.12 849 25.07 -5.3 22.4 79 -8.4 16.9
03:00 1020 30.12 849 25.07 -5.4 22.3 79 -8.5 16.7
03:05 1020 30.12 849 25.07 -5.4 22.2 79 -8.5 16.8
03:10 1020 30.12 849 25.07 -5.4 22.3 78 -8.7 16.4
03:15 1020 30.12 849 25.07 -5.4 22.3 79 -8.5 16.7
03:20 1020 30.12 849 25.07 -5.4 22.3 79 -8.6 16.6
03:25 1020 30.12 849 25.07 -5.4 22.2 79 -8.6 16.6
03:30 1020 30.12 849 25.07 -5.5 22.2 79 -8.5 16.7
03:35 1020 30.12 849 25.07 -5.5 22.2 79 -8.6 16.5
03:40 1020 30.12 849 25.07 -5.5 22.1 78 -8.7 16.4
03:45 1020 30.12 849 25.07 -5.5 22.1 78 -8.8 16.2
03:50 1020 30.12 849 25.07 -5.5 22.1 78 -8.8 16.1
03:55 1020 30.12 849 25.07 -5.5 22.1 77 -8.9 15.9
04:00 1020 30.12 849 25.07 -5.5 22.1 76 -9.1 15.7
04:05 1020 30.12 849 25.07 -5.5 22.1 76 -9.1 15.6
04:10 1020 30.12 849 25.07 -5.4 22.2 76 -9.1 15.6
04:15 1020 30.12 849 25.07 -5.5 22.1 76 -9.1 15.7
04:20 1020 30.12 850 25.1 -5.6 22 76 -9.1 15.6
04:25 1020 30.12 850 25.1 -5.6 21.8 77 -9.1 15.6
04:30 1020 30.12 850 25.1 -5.6 21.9 74 -9.5 14.9
04:35 1020 30.12 850 25.1 -5.5 22.1 73 -9.6 14.8
04:40 1020 30.12 850 25.1 -5.5 22.1 73 -9.5 14.9
04:45 1020 30.12 850 25.1 -5.5 22.1 75 -9.3 15.3
04:50 1021 30.15 850 25.1 -5.5 22 75 -9.4 15.2
04:55 1021 30.15 850 25.1 -5.6 22 75 -9.4 15.1
05:00 1021 30.15 850 25.1 -5.6 22 74 -9.4 15
05:05 1021 30.15 850 25.1 -5.5 22 73 -9.7 14.5
05:10 1021 30.15 850 25.1 -5.5 22 73 -9.7 14.6
05:15 1021 30.15 850 25.1 -5.6 22 74 -9.6 14.7
05:20 1021 30.15 850 25.1 -5.6 21.9 73 -9.6 14.7
05:25 1021 30.15 850 25.1 -5.7 21.8 73 -9.8 14.4
05:30 1021 30.15 850 25.1 -5.7 21.7 73 -9.8 14.3
05:35 1021 30.15 850 25.1 -5.8 21.6 74 -9.7 14.5
05:40 1021 30.15 850 25.1 -5.8 21.6 73 -9.8 14.3
05:45 1021 30.15 850 25.1 -5.8 21.5 74 -9.8 14.4
05:50 1021 30.15 850 25.1 -5.8 21.5 74 -9.7 14.5
05:55 1021 30.15 851 25.13 -5.9 21.4 74 -9.8 14.3
06:00 1021 30.15 851 25.13 -5.9 21.5 74 -9.8 14.3
06:05 1022 30.18 851 25.13 -5.8 21.5 74 -9.8 14.4
06:10 1022 30.18 851 25.13 -5.8 21.5 74 -9.8 14.3
06:15 1022 30.18 851 25.13 -5.8 21.5 74 -9.8 14.4
06:20 1022 30.18 851 25.13 -5.9 21.4 74 -9.8 14.4
06:25 1022 30.18 851 25.13 -5.9 21.4 75 -9.7 14.5
06:30 1022 30.18 851 25.13 -5.9 21.4 75 -9.7 14.6
06:35 1022 30.18 851 25.13 -6 21.2 75 -9.7 14.5
06:40 1022 30.18 851 25.13 -6 21.1 76 -9.5 14.8
06:45 1022 30.18 851 25.13 -6 21.1 76 -9.6 14.8
06:50 1022 30.18 851 25.13 -6.1 21 77 -9.4 15
06:55 1022 30.18 851 25.13 -6.2 20.9 79 -9.3 15.3
07:00 1022 30.18 851 25.13 -6.2 20.9 80 -9.2 15.5
07:05 1022 30.18 852 25.16 -6.2 20.9 79 -9.2 15.5
07:10 1022 30.18 852 25.16 -6.2 20.8 79 -9.3 15.3
07:15 1022 30.18 852 25.16 -6.2 20.9 79 -9.2 15.4
07:20 1022 30.18 852 25.16 -6.1 21.1 78 -9.4 15.1
07:25 1022 30.18 852 25.16 -6 21.2 77 -9.4 15.1
07:30 1023 30.21 852 25.16 -5.8 21.5 78 -9.2 15.5
07:35 1023 30.21 852 25.16 -5.8 21.5 75 -9.5 14.8
07:40 1023 30.21 852 25.16 -5.9 21.4 74 -9.8 14.3
07:45 1023 30.21 852 25.16 -5.9 21.4 75 -9.7 14.6
07:50 1023 30.21 852 25.16 -5.8 21.5 75 -9.6 14.7
07:55 1023 30.21 852 25.16 -5.7 21.8 75 -9.4 15
08:00 1023 30.21 852 25.16 -5.7 21.7 74 -9.7 14.6
08:05 1023 30.21 852 25.16 -5.7 21.8 74 -9.6 14.7
08:10 1023 30.21 852 25.16 -5.7 21.7 74 -9.6 14.7
08:15 1023 30.21 852 25.16 -5.6 21.9 72 -9.9 14.2
08:20 1023 30.21 852 25.16 -5.6 22 72 -9.8 14.3
08:25 1023 30.21 852 25.16 -5.4 22.3 70 -10 14
08:30 1023 30.21 852 25.16 -5.4 22.3 71 -9.8 14.3
08:35 1023 30.21 852 25.16 -5.3 22.5 70 -9.9 14.1
08:40 1023 30.21 852 25.16 -5.3 22.5 69 -10 14
08:45 1023 30.21 852 25.16 -5.2 22.6 69 -10 14
08:50 1023 30.21 852 25.16 -5.2 22.7 69 -10 13.9
08:55 1023 30.21 853 25.19 -5 23 66 -10.4 13.3
09:00 1023 30.21 853 25.19 -5 23 67 -10.3 13.4
09:05 1023 30.21 853 25.19 -4.8 23.4 66 -10.2 13.6
09:10 1023 30.21 853 25.19 -4.6 23.8 64 -10.4 13.3
09:15 1023 30.21 853 25.19 -4.8 23.3 66 -10.3 13.5
09:20 1024 30.24 853 25.19 -5 23.1 66 -10.3 13.5
09:25 1024 30.24 853 25.19 -4.8 23.3 66 -10.2 13.6
09:30 1024 30.24 853 25.19 -4.7 23.5 65 -10.2 13.6
09:35 1024 30.24 853 25.19 -4.8 23.4 66 -10.2 13.7
09:40 1024 30.24 853 25.19 -4.7 23.5 65 -10.3 13.5
09:45 1024 30.24 853 25.19 -4.7 23.5 65 -10.3 13.4
09:50 1024 30.24 853 25.19 -4.6 23.7 65 -10.3 13.5
09:55 1024 30.24 853 25.19 -4.3 24.2 63 -10.4 13.2
10:00 1024 30.24 853 25.19 -4.2 24.5 63 -10.2 13.7
10:05 1024 30.24 853 25.19 -4.3 24.3 62 -10.4 13.3
10:10 1024 30.24 853 25.19 -4.3 24.2 64 -10.2 13.6
10:15 1024 30.24 853 25.19 -4.4 24.1 62 -10.6 13
10:20 1024 30.24 853 25.19 -4.4 24.2 61 -10.9 12.4
10:25 1024 30.24 853 25.19 -4.5 23.9 61 -10.8 12.5
10:30 1024 30.24 853 25.19 -4.1 24.6 60 -10.7 12.8
10:35 1024 30.24 853 25.19 -4.1 24.7 59 -10.9 12.4
10:40 1024 30.24 853 25.19 -4.1 24.6 60 -10.7 12.7
10:45 1024 30.24 853 25.19 -4.1 24.6 60 -10.8 12.5
10:50 1024 30.24 854 25.22 -4.1 24.7 60 -10.8 12.5
10:55 1024 30.24 854 25.22 -4 24.9 58 -11.1 12.1
11:00 1024 30.24 854 25.22 -3.8 25.1 57 -11.2 11.8
11:05 1024 30.24 854 25.22 -3.4 25.9 55 -11.1 12
11:10 1024 30.24 854 25.22 -3.2 26.3 53 -11.4 11.4
11:15 1024 30.24 854 25.22 -2.9 26.8 53 -11.1 12
11:20 1024 30.24 854 25.22 -2.3 27.9 51 -11.2 11.9
11:25 1024 30.24 854 25.22 -2.3 27.8 51 -11 12.2
11:30 1024 30.24 854 25.22 -2.6 27.3 52 -11.1 11.9
11:35 1024 30.24 854 25.22 -2.1 28.2 50 -11.1 12
11:40 1025 30.27 854 25.22 -1.3 29.7 47 -11.3 11.6
11:45 1025 30.27 854 25.22 -0.9 30.5 48 -10.6 12.9
11:50 1025 30.27 854 25.22 -1.2 29.8 48 -10.8 12.5
11:55 1025 30.27 854 25.22 -0.7 30.7 46 -11 12.2
12:00 1025 30.27 854 25.22 -0.4 31.2 48 -10.3 13.5
12:05 1025 30.27 854 25.22 -1.2 29.9 49 -10.6 12.9
12:10 1025 30.27 854 25.22 -0.9 30.4 50 -10.1 13.8
12:15 1025 30.27 854 25.22 -0.3 31.4 46 -10.8 12.6
12:20 1025 30.27 854 25.22 -1 30.3 50 -10.1 13.8
12:25 1025 30.27 854 25.22 -0.7 30.8 46 -10.8 12.6
12:30 1025 30.27 854 25.22 0 32 53 -8.4 16.8
12:35 1025 30.27 854 25.22 -0.4 31.3 53 -8.8 16.2
12:40 1025 30.27 854 25.22 -0.2 31.6 52 -9 15.8
12:45 1025 30.27 854 25.22 -1.1 30 56 -8.7 16.3
12:50 1025 30.27 854 25.22 -0.9 30.4 52 -9.5 15
12:55 1025 30.27 854 25.22 -0.3 31.5 52 -9.1 15.7
13:00 1025 30.27 854 25.22 -0.2 31.7 49 -9.6 14.7
13:05 1025 30.27 854 25.22 0.1 32.2 48 -9.7 14.5
13:10 1025 30.27 854 25.22 0.3 32.6 43 -10.8 12.5
13:15 1025 30.27 854 25.22 1.6 34.9 41 -10.4 13.4
13:20 1025 30.27 854 25.22 2.1 35.8 41 -9.7 14.6
13:25 1025 30.27 854 25.22 0.8 33.4 44 -10.1 13.9
13:30 1025 30.27 854 25.22 0.6 33 44 -10.4 13.3
13:35 1025 30.27 854 25.22 0.9 33.6 38 -11.9 10.5
13:40 1025 30.27 854 25.22 1.6 34.8 38 -11.2 11.9
13:45 1025 30.27 854 25.22 1.9 35.4 36 -11.5 11.2
13:50 1025 30.27 854 25.22 2.4 36.4 34 -12.1 10.2
13:55 1025 30.27 854 25.22 2.1 35.8 37 -11.3 11.7
14:00 1025 30.27 854 25.22 1.3 34.3 37 -11.8 10.7
14:05 1025 30.27 854 25.22 2 35.6 36 -11.8 10.8
14:10 1025 30.27 854 25.22 3 37.5 33 -11.8 10.7
14:15 1025 30.27 854 25.22 3.2 37.8 32 -11.9 10.6
14:20 1024 30.24 854 25.22 2.2 35.9 32 -12.8 8.9
14:25 1025 30.27 854 25.22 2.8 37 31 -13 8.7
14:30 1024 30.24 854 25.22 3.4 38.1 28 -13.6 7.5
14:35 1024 30.24 854 25.22 2 35.6 30 -13.7 7.4
14:40 1024 30.24 854 25.22 1.2 34.2 31 -14 6.7
14:45 1024 30.24 854 25.22 1.5 34.7 32 -13.5 7.6
14:50 1024 30.24 854 25.22 2.5 36.4 30 -13.5 7.7
14:55 1024 30.24 854 25.22 2.9 37.1 29 -13.3 8
15:00 1024 30.24 854 25.22 3.6 38.4 29 -12.9 8.8
15:05 1024 30.24 854 25.22 3.2 37.8 29 -13.3 8.1
15:10 1024 30.24 854 25.22 3.6 38.5 28 -13.3 8.1
15:15 1024 30.24 854 25.22 4.4 40 28 -12.7 9.2
15:20 1024 30.24 854 25.22 4.1 39.4 28 -12.7 9.2
15:25 1024 30.24 854 25.22 3.9 39 29 -12.8 8.9
15:30 1024 30.24 854 25.22 4 39.2 29 -12.5 9.6
15:35 1024 30.24 854 25.22 3.8 38.9 30 -12.3 9.9
15:40 1024 30.24 854 25.22 3.6 38.4 29 -12.7 9.2
15:45 1024 30.24 854 25.22 4.2 39.5 27 -13 8.5
15:50 1024 30.24 854 25.22 4.3 39.7 28 -12.9 8.9
15:55 1024 30.24 854 25.22 4.4 40 27 -13.1 8.4
16:00 1024 30.24 853 25.19 4.3 39.8 26 -13.7 7.4
16:05 1024 30.24 853 25.19 4.3 39.8 25 -13.8 7.1
16:10 1024 30.24 853 25.19 4.6 40.2 25 -13.6 7.5
16:15 1024 30.24 853 25.19 4.5 40.1 25 -14.2 6.5
16:20 1024 30.24 853 25.19 4.6 40.3 25 -13.7 7.4
16:25 1024 30.24 853 25.19 4.7 40.5 21 -15.7 3.8
16:30 1024 30.24 853 25.19 4.9 40.9 22 -15.1 4.8
16:35 1024 30.24 853 25.19 4.3 39.8 24 -14.7 5.6
16:40 1024 30.24 853 25.19 4.2 39.5 24 -14.7 5.6
16:45 1024 30.24 853 25.19 5.1 41.2 22 -14.8 5.3
16:50 1024 30.24 853 25.19 3.6 38.5 27 -13.8 7.2
16:55 1024 30.24 853 25.19 3 37.4 18 -19.2 -2.5
17:00 1024 30.24 853 25.19 3.8 38.8 15 -20.5 -4.9
17:05 1024 30.24 853 25.19 3.8 38.9 15 -21 -5.8
17:10 1024 30.24 854 25.22 3.7 38.7 15 -20.8 -5.4
17:15 1024 30.24 854 25.22 3.7 38.6 14 -21.8 -7.3
17:20 1024 30.24 854 25.22 3.2 37.7 14 -22.3 -8.1
17:25 1024 30.24 854 25.22 3.3 37.9 14 -21.9 -7.3
17:30 1024 30.24 854 25.22 3.2 37.7 14 -22 -7.6
17:35 1024 30.24 854 25.22 3 37.4 14 -22.2 -8
17:40 1024 30.24 854 25.22 2.9 37.2 14 -22 -7.6
17:45 1024 30.24 854 25.22 2.7 36.9 14 -22.1 -7.8
17:50 1024 30.24 854 25.22 2.6 36.7 14 -22.5 -8.4
17:55 1024 30.24 854 25.22 2.6 36.7 14 -22.4 -8.4
18:00 1024 30.24 854 25.22 2.5 36.5 14 -22.5 -8.5
18:05 1024 30.24 854 25.22 2.3 36.2 14 -22.7 -8.8
18:10 1024 30.24 854 25.22 2.2 35.9 14 -22.6 -8.7
18:15 1025 30.27 854 25.22 2.2 36 15 -22.4 -8.3
18:20 1025 30.27 854 25.22 2.2 36 15 -22.4 -8.3
18:25 1025 30.27 854 25.22 2 35.7 15 -22.4 -8.3
18:30 1025 30.27 854 25.22 1.9 35.4 15 -22.4 -8.3
18:35 1025 30.27 854 25.22 1.7 35.1 15 -22.4 -8.4
18:40 1025 30.27 854 25.22 1.5 34.7 15 -22.4 -8.4
18:45 1025 30.27 854 25.22 1.4 34.6 15 -22.4 -8.4
18:50 1025 30.27 854 25.22 1.1 34 16 -22.2 -7.9
18:55 1025 30.27 854 25.22 1 33.8 17 -21.7 -7.1
19:00 1025 30.27 854 25.22 0.8 33.5 18 -21.2 -6.2
19:05 1025 30.27 855 25.25 0.7 33.2 18 -21 -5.8
19:10 1025 30.27 855 25.25 0.6 33 19 -20.5 -4.9
19:15 1025 30.27 855 25.25 0.5 32.8 20 -20.2 -4.4
19:20 1025 30.27 855 25.25 0.3 32.5 21 -19.8 -3.6
19:25 1026 30.3 855 25.25 0.2 32.3 22 -19.4 -3
19:30 1026 30.3 855 25.25 -0 32 22 -19.5 -3.2
19:35 1026 30.3 855 25.25 -0 31.9 21 -19.8 -3.6
19:40 1026 30.3 855 25.25 -0.1 31.9 22 -19.6 -3.2
19:45 1026 30.3 855 25.25 -0.2 31.6 22 -19.6 -3.3
19:50 1026 30.3 855 25.25 -0.4 31.3 22 -19.5 -3.2
19:55 1026 30.3 855 25.25 -0.5 31.1 23 -19.5 -3.1
20:00 1026 30.3 855 25.25 -0.6 30.9 23 -19.5 -3.2
20:05 1026 30.3 855 25.25 -0.8 30.6 24 -19.2 -2.6
20:10 1026 30.3 855 25.25 -1 30.2 25 -18.8 -1.8
20:15 1026 30.3 855 25.25 -1.1 30 25 -18.7 -1.6
20:20 1026 30.3 855 25.25 -1.1 30 25 -18.7 -1.7
20:25 1026 30.3 856 25.28 -1.2 29.9 27 -17.9 -0.3
20:30 1026 30.3 856 25.28 -1.5 29.3 29 -17.5 0.4
20:35 1026 30.3 856 25.28 -1.6 29.2 30 -17.1 1.2
20:40 1026 30.3 856 25.28 -1.6 29 30 -17.1 1.2
20:45 1026 30.3 856 25.28 -1.8 28.8 31 -16.7 1.9
20:50 1026 30.3 856 25.28 -1.9 28.5 32 -16.6 2.1
20:55 1026 30.3 856 25.28 -1.9 28.6 32 -16.7 2
21:00 1026 30.3 856 25.28 -2 28.5 33 -16.3 2.7
21:05 1026 30.3 856 25.28 -2.2 28 34 -16.2 2.8
21:10 1026 30.3 856 25.28 -2.4 27.7 35 -15.8 3.5
21:15 1026 30.3 856 25.28 -2.6 27.3 35 -16 3.2
21:20 1026 30.3 856 25.28 -2.6 27.3 36 -15.8 3.6
21:25 1026 30.3 856 25.28 -2.6 27.3 36 -15.8 3.5
21:30 1026 30.3 856 25.28 -2.6 27.3 35 -16.3 2.7
21:35 1026 30.3 856 25.28 -2.5 27.5 35 -16 3.2
21:40 1026 30.3 856 25.28 -2.5 27.6 36 -15.6 3.8
21:45 1027 30.33 856 25.28 -2.7 27.1 38 -15.3 4.5
21:50 1027 30.33 856 25.28 -3 26.6 39 -15.1 4.9
21:55 1027 30.33 856 25.28 -3.1 26.3 40 -14.8 5.4
22:00 1027 30.33 856 25.28 -3.3 26.1 41 -14.9 5.3
22:05 1026 30.3 856 25.28 -3.4 25.9 41 -14.7 5.5
22:10 1026 30.3 856 25.28 -3.5 25.6 41 -14.9 5.2
22:15 1026 30.3 856 25.28 -3.6 25.6 42 -14.9 5.3
22:20 1027 30.33 856 25.28 -3.6 25.5 41 -15 5
22:25 1026 30.3 856 25.28 -3.7 25.3 42 -14.7 5.5
22:30 1026 30.3 856 25.28 -4 24.9 44 -14.5 5.9
22:35 1026 30.3 856 25.28 -4.1 24.6 43 -14.9 5.2
22:40 1026 30.3 856 25.28 -4.1 24.6 44 -14.6 5.7
22:45 1027 30.33 856 25.28 -4.2 24.4 46 -14.2 6.5
22:50 1026 30.3 856 25.28 -4.2 24.4 47 -13.9 7
22:55 1026 30.3 856 25.28 -4.2 24.5 47 -14 6.8
23:00 1026 30.3 856 25.28 -4.2 24.5 47 -13.9 7
23:05 1026 30.3 856 25.28 -4.3 24.3 48 -13.7 7.4
23:10 1027 30.33 856 25.28 -4.3 24.2 48 -13.7 7.4
23:15 1027 30.33 856 25.28 -4.3 24.2 49 -13.4 7.8
23:20 1026 30.3 856 25.28 -4.5 23.9 50 -13.3 8
23:25 1026 30.3 856 25.28 -4.6 23.7 50 -13.5 7.8
23:30 1026 30.3 856 25.28 -4.7 23.6 51 -13.4 7.9
23:35 1026 30.3 856 25.28 -4.7 23.5 51 -13.4 7.9
23:40 1027 30.33 856 25.28 -4.7 23.5 50 -13.7 7.4
23:45 1027 30.33 856 25.28 -4.7 23.5 50 -13.6 7.5
23:50 1027 30.33 856 25.28 -4.8 23.4 51 -13.5 7.6
23:55 1027 30.33 856 25.28 -4.8 23.3 51 -13.4 7.8
24:00 1027 30.33 856 25.28 -4.9 23.2 52 -13.2 8.2